Impacts METAR Board INFO
IDs:

KORD - Chicago/O'Hare Intl, IL, US

Updated at: 1157 UTC 19 Nov 2017
Potential Impact None Slight Moderate High
Time18/23Z 19/00Z 19/01Z 19/02Z 19/03Z 19/04Z 19/05Z 19/06Z 19/07Z 19/08Z 19/09Z 19/10Z 19/11Z
VIS10 10 10 10 10 10 10 10 10 10 10 10 10
CIG16 25 27 30 30 32 33 29 29 30 32 31 30
CoverOVCOVCOVCOVCOVCOVCOVCOVCOVCOVCOVCOVCOVC
FltCatMVFRMVFRMVFRMVFRMVFRVFRVFRMVFRMVFRMVFRVFRVFRMVFR
WX--------------------------
WDir340340340330320320320330320320320310300
WSpd16 22 17 20 14 21 11 17 16 13 14 13 12
WGst20 28 24 25 -- 24 -- 25 21 -- -- -- --
Raw hourly METARs
KORD 182251Z 34016G20KT 10SM BKN016 OVC022 04/01 A2961 RMK AO2 SLP031 T00440006
KORD 182351Z 34022G28KT 10SM SCT019 OVC025 04/M01 A2966 RMK AO2 PK WND 32032/2332 SLP049 60015 T00441011 10044 20017 53045
KORD 190051Z 34017G24KT 10SM OVC027 04/M01 A2970 RMK AO2 PK WND 34031/0008 SLP061 T00391011
KORD 190204Z 33020G25KT 10SM SCT026 BKN030 OVC035 04/M02 A2973 RMK AO2 T00391017
KORD 190251Z 32014KT 10SM SCT026 BKN030 OVC035 04/M01 A2975 RMK AO2 SLP079 T00391011 51030
KORD 190351Z 32021G24KT 10SM OVC032 04/M02 A2979 RMK AO2 PK WND 34029/0315 SLP092 T00391022
KORD 190451Z 32011KT 10SM OVC033 03/M02 A2982 RMK AO2 PK WND 34028/0402 SLP102 T00331017
KORD 190551Z 33017G25KT 10SM OVC029 03/M03 A2984 RMK AO2 SLP110 T00331033 10044 20033 400890017 51029
KORD 190651Z 32016G21KT 10SM OVC029 02/M04 A2985 RMK AO2 SLP115 T00221039
KORD 190751Z 32013KT 10SM OVC030 02/M04 A2988 RMK AO2 SLP122 T00171039
KORD 190851Z 32014KT 10SM OVC032 01/M05 A2990 RMK AO2 SLP129 T00111050 53019
KORD 190951Z 31013KT 10SM OVC031 01/M06 A2991 RMK AO2 SLP134 T00061056
KORD 191051Z 30012KT 10SM OVC030 00/M06 A2993 RMK AO2 SLP143 T00001061